Time;durP1;ratioP1;P1;durP2;ratioP2;P2;SDS_P1;SDS_P2;PMS_P1;PMS_P2;Temp;Humidity;BMP_temperature;BMP_pressure;BME280_temperature;BME280_humidity;BME280_pressure;Samples;Min_cycle;Max_cycle;Signal;HPM_P1;HPM_P2
2021/11/22 00:06:19;;;;;;;4.07;0.60;;;;;;;;;;4978761;28;20101;-54
2021/11/22 00:08:46;;;;;;;1.48;0.50;;;;;;;;;;4963244;28;20109;-52
2021/11/22 00:11:11;;;;;;;1.23;0.45;;;;;;;;;;4963280;28;20062;-56
2021/11/22 00:13:38;;;;;;;2.00;0.63;;;;;;;;;;4963925;28;20045;-55
2021/11/22 00:16:04;;;;;;;1.85;0.50;;;;;;;;;;4963310;28;20046;-53
2021/11/22 00:18:30;;;;;;;1.55;0.50;;;;;;;;;;4963579;28;20864;-54
2021/11/22 00:20:56;;;;;;;2.05;0.52;;;;;;;;;;4964292;28;20042;-53
2021/11/22 00:23:22;;;;;;;3.00;0.60;;;;;;;;;;4962296;28;20038;-56
2021/11/22 00:25:48;;;;;;;6.47;0.60;;;;;;;;;;4964966;28;20047;-55
2021/11/22 00:28:14;;;;;;;2.58;0.57;;;;;;;;;;4961623;28;20085;-55
2021/11/22 00:30:40;;;;;;;3.15;0.50;;;;;;;;;;4960907;28;20046;-55
2021/11/22 00:33:08;;;;;;;2.05;0.60;;;;;;;;;;4963313;28;20106;-55
2021/11/22 00:35:35;;;;;;;1.50;0.60;;;;;;;;;;4964258;28;20042;-56
2021/11/22 00:38:03;;;;;;;2.13;0.68;;;;;;;;;;4963800;28;20046;-53
2021/11/22 00:40:29;;;;;;;3.20;0.60;;;;;;;;;;4961738;28;20050;-56
2021/11/22 00:42:56;;;;;;;1.85;0.63;;;;;;;;;;4965014;28;20119;-55
2021/11/22 00:45:22;;;;;;;1.77;0.57;;;;;;;;;;4966394;28;20565;-56
2021/11/22 00:47:48;;;;;;;2.65;0.60;;;;;;;;;;4967804;28;20122;-56
2021/11/22 00:50:14;;;;;;;2.08;0.75;;;;;;;;;;4965329;28;20454;-54
2021/11/22 00:52:40;;;;;;;1.90;0.70;;;;;;;;;;4965469;28;20058;-55
2021/11/22 00:55:07;;;;;;;3.05;0.50;;;;;;;;;;4962620;28;20077;-56
2021/11/22 00:57:33;;;;;;;1.60;0.55;;;;;;;;;;4961607;28;21127;-58
2021/11/22 00:59:59;;;;;;;1.05;0.50;;;;;;;;;;4963630;28;20049;-54
2021/11/22 01:02:25;;;;;;;2.05;0.60;;;;;;;;;;4959630;28;20141;-54
2021/11/22 01:04:51;;;;;;;1.85;0.70;;;;;;;;;;4960378;28;20034;-57
2021/11/22 01:07:21;;;;;;;2.85;0.90;;;;;;;;;;4970620;28;20057;-55
2021/11/22 01:09:47;;;;;;;3.13;0.60;;;;;;;;;;4982499;28;20054;-55
2021/11/22 01:12:13;;;;;;;1.08;0.40;;;;;;;;;;4982568;28;20557;-55
2021/11/22 01:14:39;;;;;;;1.88;0.57;;;;;;;;;;4963771;28;20539;-56
2021/11/22 01:17:05;;;;;;;1.95;0.60;;;;;;;;;;4963768;28;20184;-53
2021/11/22 01:19:31;;;;;;;2.55;0.60;;;;;;;;;;4971960;28;20036;-55
2021/11/22 01:21:57;;;;;;;1.52;0.60;;;;;;;;;;4980317;28;20499;-56
2021/11/22 01:24:23;;;;;;;1.75;0.63;;;;;;;;;;4981755;28;20108;-51
2021/11/22 01:26:49;;;;;;;2.70;0.60;;;;;;;;;;4980665;28;20581;-54
2021/11/22 01:29:14;;;;;;;1.65;0.50;;;;;;;;;;4979989;28;20055;-54
2021/11/22 01:31:40;;;;;;;1.92;0.60;;;;;;;;;;4979324;28;20045;-56
2021/11/22 01:34:06;;;;;;;2.88;0.70;;;;;;;;;;4982160;28;20152;-55
2021/11/22 01:36:32;;;;;;;2.50;0.60;;;;;;;;;;4978884;28;20045;-54
2021/11/22 01:38:58;;;;;;;1.83;0.68;;;;;;;;;;4978980;28;20419;-54
2021/11/22 01:41:24;;;;;;;2.75;0.70;;;;;;;;;;4980813;28;20097;-55
2021/11/22 01:43:50;;;;;;;1.40;0.50;;;;;;;;;;4979753;28;20463;-54
2021/11/22 01:46:21;;;;;;;8.85;1.00;;;;;;;;;;4981394;28;20148;-54
2021/11/22 01:48:48;;;;;;;2.20;0.60;;;;;;;;;;4981024;28;20400;-55
2021/11/22 01:51:14;;;;;;;2.55;0.60;;;;;;;;;;4979948;28;20066;-56
2021/11/22 01:53:40;;;;;;;1.73;0.60;;;;;;;;;;4978770;28;20481;-56
2021/11/22 01:56:06;;;;;;;2.35;0.70;;;;;;;;;;4981033;28;20118;-55
2021/11/22 01:58:32;;;;;;;2.75;0.85;;;;;;;;;;4980561;28;20368;-57
2021/11/22 02:00:58;;;;;;;2.47;0.73;;;;;;;;;;4982190;28;20054;-56
2021/11/22 02:03:24;;;;;;;2.03;0.60;;;;;;;;;;4979757;28;20891;-54
2021/11/22 02:05:51;;;;;;;2.17;0.70;;;;;;;;;;4980342;28;20044;-52
2021/11/22 02:08:18;;;;;;;2.03;0.60;;;;;;;;;;4981725;28;20056;-55
2021/11/22 02:10:44;;;;;;;6.82;0.90;;;;;;;;;;4978064;28;20137;-55
2021/11/22 02:13:09;;;;;;;4.90;0.88;;;;;;;;;;4979480;28;20049;-56
2021/11/22 02:15:36;;;;;;;2.08;0.70;;;;;;;;;;4979477;28;20062;-54
2021/11/22 02:18:02;;;;;;;1.25;0.50;;;;;;;;;;4980906;28;20050;-54
2021/11/22 02:20:29;;;;;;;2.25;0.73;;;;;;;;;;4980813;28;20043;-56
2021/11/22 02:22:57;;;;;;;3.20;0.80;;;;;;;;;;4985802;28;20115;-53
2021/11/22 02:25:24;;;;;;;2.20;0.75;;;;;;;;;;4983627;28;20126;-55
2021/11/22 02:27:51;;;;;;;2.33;0.73;;;;;;;;;;4983763;28;20046;-53
2021/11/22 02:30:18;;;;;;;3.67;0.70;;;;;;;;;;4983131;28;20065;-54
2021/11/22 02:32:44;;;;;;;8.77;0.75;;;;;;;;;;4981722;28;20140;-56
2021/11/22 02:35:12;;;;;;;2.00;0.63;;;;;;;;;;4983542;28;20056;-52
2021/11/22 02:37:38;;;;;;;2.40;0.70;;;;;;;;;;4983982;28;20049;-53
2021/11/22 02:40:04;;;;;;;2.53;0.70;;;;;;;;;;4984397;28;20052;-56
2021/11/22 02:42:32;;;;;;;3.85;0.98;;;;;;;;;;4982687;28;20101;-56
2021/11/22 02:44:58;;;;;;;1.55;0.55;;;;;;;;;;4982660;28;20594;-54
2021/11/22 02:47:24;;;;;;;2.85;0.60;;;;;;;;;;4982434;28;20053;-56
2021/11/22 02:49:51;;;;;;;2.58;0.60;;;;;;;;;;4983956;28;20053;-56
2021/11/22 02:52:17;;;;;;;2.88;0.90;;;;;;;;;;4977059;28;20038;-53
2021/11/22 02:54:44;;;;;;;2.30;0.80;;;;;;;;;;4984060;28;20045;-54
2021/11/22 02:57:11;;;;;;;7.32;1.25;;;;;;;;;;4984355;28;20030;-56
2021/11/22 02:59:39;;;;;;;2.65;0.80;;;;;;;;;;4981883;28;20043;-57
2021/11/22 03:02:06;;;;;;;2.70;0.80;;;;;;;;;;4981402;28;20046;-55
2021/11/22 03:04:33;;;;;;;3.90;0.95;;;;;;;;;;4982688;28;20042;-56
2021/11/22 03:06:59;;;;;;;2.47;0.80;;;;;;;;;;4983860;28;20078;-55
2021/11/22 03:09:25;;;;;;;2.47;0.70;;;;;;;;;;4983089;28;20121;-56
2021/11/22 03:11:51;;;;;;;3.13;0.90;;;;;;;;;;4970792;28;20038;-56
2021/11/22 03:14:17;;;;;;;3.38;0.70;;;;;;;;;;4983464;28;20100;-56
2021/11/22 03:16:42;;;;;;;3.00;0.90;;;;;;;;;;4982989;28;20037;-55
2021/11/22 03:19:08;;;;;;;4.07;1.00;;;;;;;;;;4981986;28;20054;-51
2021/11/22 03:21:34;;;;;;;4.00;0.80;;;;;;;;;;4981324;28;20039;-52
2021/11/22 03:24:00;;;;;;;1.85;0.73;;;;;;;;;;4983122;28;20038;-51
2021/11/22 03:26:26;;;;;;;3.97;0.80;;;;;;;;;;4982158;28;20058;-53
2021/11/22 03:28:52;;;;;;;3.33;0.88;;;;;;;;;;4981429;28;20077;-52
2021/11/22 03:31:18;;;;;;;3.03;0.70;;;;;;;;;;4965495;28;20528;-51
2021/11/22 03:33:46;;;;;;;6.45;1.08;;;;;;;;;;4982888;28;20034;-53
2021/11/22 03:36:12;;;;;;;3.40;1.35;;;;;;;;;;4982719;28;20050;-55
2021/11/22 03:38:38;;;;;;;3.25;1.20;;;;;;;;;;4980407;28;21737;-53
2021/11/22 03:41:11;;;;;;;2.97;0.93;;;;;;;;;;4983742;28;20123;-54
2021/11/22 03:43:47;;;;;;;2.67;0.77;;;;;;;;;;4982373;28;20104;-56
2021/11/22 03:46:14;;;;;;;2.40;0.80;;;;;;;;;;4984603;28;20084;-55
2021/11/22 03:48:40;;;;;;;3.22;0.82;;;;;;;;;;4982915;28;20052;-54
2021/11/22 03:51:06;;;;;;;1.55;0.50;;;;;;;;;;4982023;28;20470;-57
2021/11/22 03:53:32;;;;;;;2.55;0.80;;;;;;;;;;4982321;28;20100;-54
2021/11/22 03:55:58;;;;;;;3.13;0.70;;;;;;;;;;4983689;28;20104;-53
2021/11/22 03:58:24;;;;;;;1.13;0.50;;;;;;;;;;4983610;28;20032;-54
2021/11/22 04:00:50;;;;;;;2.00;0.60;;;;;;;;;;4986972;28;20046;-56
2021/11/22 04:03:16;;;;;;;2.47;0.80;;;;;;;;;;4984072;28;20506;-53
2021/11/22 04:05:42;;;;;;;3.47;0.60;;;;;;;;;;4982668;28;20158;-55
2021/11/22 04:08:08;;;;;;;1.90;0.60;;;;;;;;;;4984312;28;20141;-55
2021/11/22 04:10:38;;;;;;;1.67;0.50;;;;;;;;;;4984008;28;20058;-57
2021/11/22 04:13:05;;;;;;;3.05;0.82;;;;;;;;;;4983276;28;20103;-55
2021/11/22 04:15:31;;;;;;;2.53;0.77;;;;;;;;;;4965967;28;20041;-56
2021/11/22 04:17:57;;;;;;;3.03;0.82;;;;;;;;;;4982911;28;20037;-55
2021/11/22 04:20:23;;;;;;;1.75;0.50;;;;;;;;;;4984685;28;21888;-53
2021/11/22 04:22:49;;;;;;;2.60;0.70;;;;;;;;;;4982575;28;20098;-55
2021/11/22 04:25:15;;;;;;;2.83;0.80;;;;;;;;;;4984393;28;20141;-54
2021/11/22 04:27:41;;;;;;;1.40;0.55;;;;;;;;;;4981014;28;20043;-57
2021/11/22 04:30:08;;;;;;;2.03;0.70;;;;;;;;;;4983514;28;20046;-56
2021/11/22 04:32:34;;;;;;;1.85;0.60;;;;;;;;;;4979760;28;20035;-54
2021/11/22 04:35:01;;;;;;;2.28;0.70;;;;;;;;;;4984043;28;20486;-56
2021/11/22 04:37:28;;;;;;;2.92;0.80;;;;;;;;;;4980933;28;20022;-54
2021/11/22 04:39:54;;;;;;;2.50;0.68;;;;;;;;;;4982596;28;20053;-53
2021/11/22 04:42:21;;;;;;;2.03;0.77;;;;;;;;;;4962374;28;20033;-55
2021/11/22 04:44:47;;;;;;;4.20;0.77;;;;;;;;;;4982415;28;20041;-55
2021/11/22 04:47:13;;;;;;;3.53;0.90;;;;;;;;;;4984693;28;20046;-56
2021/11/22 04:49:39;;;;;;;3.70;1.15;;;;;;;;;;4983444;28;20087;-56
2021/11/22 04:52:07;;;;;;;6.57;1.50;;;;;;;;;;4983947;28;21010;-53
2021/11/22 04:54:35;;;;;;;4.28;1.65;;;;;;;;;;4982421;28;20065;-54
2021/11/22 04:57:02;;;;;;;3.83;1.60;;;;;;;;;;4983381;28;20052;-56
2021/11/22 04:59:28;;;;;;;4.10;1.40;;;;;;;;;;4981857;28;20038;-56
2021/11/22 05:01:54;;;;;;;5.35;1.33;;;;;;;;;;4983520;28;20505;-58
2021/11/22 05:04:20;;;;;;;10.55;2.00;;;;;;;;;;4982269;28;20142;-53
2021/11/22 05:06:46;;;;;;;5.07;1.67;;;;;;;;;;4984400;28;20225;-56
2021/11/22 05:09:12;;;;;;;6.63;1.63;;;;;;;;;;4979659;28;20407;-55
2021/11/22 05:11:38;;;;;;;5.50;1.73;;;;;;;;;;4982128;28;20050;-55
2021/11/22 05:14:04;;;;;;;4.70;1.58;;;;;;;;;;4982428;28;20129;-57
2021/11/22 05:16:30;;;;;;;3.50;1.80;;;;;;;;;;4981853;28;20046;-57
2021/11/22 05:18:56;;;;;;;4.70;1.98;;;;;;;;;;4980353;28;20045;-56
2021/11/22 05:21:22;;;;;;;9.27;2.05;;;;;;;;;;4980705;28;20073;-54
2021/11/22 05:23:50;;;;;;;6.20;1.80;;;;;;;;;;4982871;28;20095;-55
2021/11/22 05:26:15;;;;;;;4.93;1.73;;;;;;;;;;4983659;28;20096;-54
2021/11/22 05:28:41;;;;;;;5.28;2.00;;;;;;;;;;4980767;28;20046;-53
2021/11/22 05:31:07;;;;;;;4.50;2.10;;;;;;;;;;4983215;28;20050;-55
2021/11/22 05:33:34;;;;;;;6.78;1.85;;;;;;;;;;4982398;28;20038;-55
2021/11/22 05:36:00;;;;;;;7.80;1.98;;;;;;;;;;4982579;28;20660;-52
2021/11/22 05:38:26;;;;;;;5.32;2.13;;;;;;;;;;4981358;28;20043;-51
2021/11/22 05:40:52;;;;;;;5.07;1.95;;;;;;;;;;4964896;28;20463;-55
2021/11/22 05:43:18;;;;;;;6.65;2.28;;;;;;;;;;4980805;28;21720;-56
2021/11/22 05:45:43;;;;;;;5.57;2.60;;;;;;;;;;4978576;28;20106;-55
2021/11/22 05:48:10;;;;;;;5.10;2.22;;;;;;;;;;4982331;28;20027;-53
2021/11/22 05:50:36;;;;;;;4.68;2.05;;;;;;;;;;4980143;28;20064;-54
2021/11/22 05:53:03;;;;;;;6.00;2.42;;;;;;;;;;4980487;28;20034;-55
2021/11/22 05:55:38;;;;;;;4.28;2.03;;;;;;;;;;4984727;28;20133;-54
2021/11/22 05:58:05;;;;;;;4.53;1.70;;;;;;;;;;4988870;28;20038;-53
2021/11/22 06:00:31;;;;;;;4.72;1.48;;;;;;;;;;4987756;28;20081;-55
2021/11/22 06:02:57;;;;;;;4.20;1.48;;;;;;;;;;4986879;28;20042;-54
2021/11/22 06:05:23;;;;;;;3.72;1.10;;;;;;;;;;4985359;28;20446;-53
2021/11/22 06:07:49;;;;;;;4.95;1.40;;;;;;;;;;4984371;28;20058;-56
2021/11/22 06:10:15;;;;;;;2.53;1.02;;;;;;;;;;4984940;28;20110;-53
2021/11/22 06:12:41;;;;;;;2.70;1.00;;;;;;;;;;4984146;28;20092;-56
2021/11/22 06:15:07;;;;;;;3.20;1.10;;;;;;;;;;4988413;28;20045;-54
2021/11/22 06:17:33;;;;;;;3.35;1.17;;;;;;;;;;4984731;28;20101;-55
2021/11/22 06:19:59;;;;;;;3.45;1.25;;;;;;;;;;4982809;28;20046;-55
2021/11/22 06:22:25;;;;;;;3.00;1.08;;;;;;;;;;4982217;28;20034;-52
2021/11/22 06:24:51;;;;;;;4.05;1.30;;;;;;;;;;4983962;28;20403;-56
2021/11/22 06:27:17;;;;;;;3.63;1.30;;;;;;;;;;4985389;28;20038;-55
2021/11/22 06:29:43;;;;;;;3.47;1.20;;;;;;;;;;4984508;28;20045;-56
2021/11/22 06:32:12;;;;;;;3.28;1.30;;;;;;;;;;4984202;28;20046;-56
2021/11/22 06:34:41;;;;;;;2.85;1.00;;;;;;;;;;4985566;28;20756;-51
2021/11/22 06:37:08;;;;;;;2.80;1.00;;;;;;;;;;4985856;28;20092;-56
2021/11/22 06:39:34;;;;;;;3.92;1.20;;;;;;;;;;4985412;28;20038;-56
2021/11/22 06:42:00;;;;;;;3.35;1.20;;;;;;;;;;4985145;28;20038;-56
2021/11/22 06:44:25;;;;;;;2.80;1.10;;;;;;;;;;4967611;28;20038;-56
2021/11/22 06:46:51;;;;;;;3.25;1.08;;;;;;;;;;4985919;28;20046;-56
2021/11/22 06:49:19;;;;;;;3.08;1.02;;;;;;;;;;4983475;28;20043;-56
2021/11/22 06:51:46;;;;;;;5.90;1.20;;;;;;;;;;4983097;28;20056;-57
2021/11/22 06:54:12;;;;;;;2.95;1.10;;;;;;;;;;4984044;28;20046;-55
2021/11/22 06:56:38;;;;;;;2.90;1.00;;;;;;;;;;4981993;28;20053;-56
2021/11/22 06:59:04;;;;;;;2.55;0.82;;;;;;;;;;4984218;28;20038;-56
2021/11/22 07:01:30;;;;;;;2.60;0.80;;;;;;;;;;4983664;28;20653;-57
2021/11/22 07:03:56;;;;;;;3.97;1.25;;;;;;;;;;4984002;28;20038;-56
2021/11/22 07:06:22;;;;;;;2.92;1.10;;;;;;;;;;4984298;28;20169;-56
2021/11/22 07:08:48;;;;;;;4.13;0.77;;;;;;;;;;4984030;28;20030;-51
2021/11/22 07:11:13;;;;;;;3.28;0.93;;;;;;;;;;4983973;28;20735;-54
2021/11/22 07:13:40;;;;;;;4.32;1.13;;;;;;;;;;4983140;28;20050;-54
2021/11/22 07:16:06;;;;;;;3.03;0.90;;;;;;;;;;4984992;28;20116;-55
2021/11/22 07:18:32;;;;;;;3.17;1.02;;;;;;;;;;4982635;28;20049;-56
2021/11/22 07:20:58;;;;;;;2.45;0.85;;;;;;;;;;4983120;28;20399;-54
2021/11/22 07:23:25;;;;;;;3.10;0.90;;;;;;;;;;4983136;28;20503;-56
2021/11/22 07:25:52;;;;;;;2.95;0.85;;;;;;;;;;4984718;28;20048;-54
2021/11/22 07:28:17;;;;;;;3.17;0.88;;;;;;;;;;4984084;28;20046;-57
2021/11/22 07:30:44;;;;;;;2.88;0.95;;;;;;;;;;4966188;28;20050;-56
2021/11/22 07:33:10;;;;;;;4.47;0.90;;;;;;;;;;4983174;28;20042;-56
2021/11/22 07:35:36;;;;;;;3.17;1.10;;;;;;;;;;4982792;28;20042;-57
2021/11/22 07:38:02;;;;;;;2.70;0.90;;;;;;;;;;4984648;28;20432;-55
2021/11/22 07:40:28;;;;;;;2.90;1.00;;;;;;;;;;4981170;28;20076;-56
2021/11/22 07:42:55;;;;;;;3.50;1.10;;;;;;;;;;4982948;28;20127;-54
2021/11/22 07:45:21;;;;;;;3.78;1.00;;;;;;;;;;4979989;28;20040;-54
2021/11/22 07:47:49;;;;;;;4.07;1.30;;;;;;;;;;4965660;28;20720;-53
2021/11/22 07:50:16;;;;;;;2.70;1.00;;;;;;;;;;4984207;28;20058;-56
2021/11/22 07:52:41;;;;;;;4.93;1.10;;;;;;;;;;4980702;28;20117;-55
2021/11/22 07:55:07;;;;;;;2.85;1.10;;;;;;;;;;4982329;28;20050;-55
2021/11/22 07:57:33;;;;;;;3.25;0.82;;;;;;;;;;4983549;28;20046;-56
2021/11/22 07:59:59;;;;;;;6.13;1.30;;;;;;;;;;4983292;28;20481;-55
2021/11/22 08:02:25;;;;;;;3.45;1.17;;;;;;;;;;4982592;28;20667;-54
2021/11/22 08:04:51;;;;;;;3.20;1.10;;;;;;;;;;4984048;28;20039;-54
2021/11/22 08:07:20;;;;;;;3.80;1.00;;;;;;;;;;4983245;28;20133;-57
2021/11/22 08:09:57;;;;;;;5.72;1.30;;;;;;;;;;4982410;28;20427;-56
2021/11/22 08:12:26;;;;;;;4.45;1.35;;;;;;;;;;4981966;28;20038;-55
2021/11/22 08:14:53;;;;;;;3.00;1.05;;;;;;;;;;4983551;28;20045;-53
2021/11/22 08:17:19;;;;;;;3.65;1.20;;;;;;;;;;4981921;28;20052;-54
2021/11/22 08:19:45;;;;;;;3.25;1.23;;;;;;;;;;4981714;28;20038;-55
2021/11/22 08:22:12;;;;;;;3.30;1.15;;;;;;;;;;4981971;28;20038;-53
2021/11/22 08:24:38;;;;;;;8.55;1.27;;;;;;;;;;4983742;28;20101;-53
2021/11/22 08:27:04;;;;;;;5.15;1.25;;;;;;;;;;4967963;28;20038;-55
2021/11/22 08:29:30;;;;;;;3.28;0.95;;;;;;;;;;4981425;28;20045;-54
2021/11/22 08:31:56;;;;;;;2.80;0.88;;;;;;;;;;4982525;28;20053;-54
2021/11/22 08:34:22;;;;;;;2.75;0.80;;;;;;;;;;4982441;28;20042;-55
2021/11/22 08:36:48;;;;;;;5.88;1.10;;;;;;;;;;4980833;28;20066;-56
2021/11/22 08:39:14;;;;;;;2.83;1.10;;;;;;;;;;4983403;28;20046;-56
2021/11/22 08:41:40;;;;;;;4.15;1.00;;;;;;;;;;4979610;28;20050;-56
2021/11/22 08:44:06;;;;;;;3.75;0.90;;;;;;;;;;4982408;28;20045;-55
2021/11/22 08:46:36;;;;;;;2.65;0.80;;;;;;;;;;4981611;28;20038;-54
2021/11/22 08:49:03;;;;;;;2.35;0.88;;;;;;;;;;4983583;28;20038;-55
2021/11/22 08:51:29;;;;;;;2.70;0.90;;;;;;;;;;4980654;28;20050;-54
2021/11/22 08:53:55;;;;;;;1.70;0.60;;;;;;;;;;4982226;28;20114;-55
2021/11/22 08:56:21;;;;;;;1.95;0.80;;;;;;;;;;4981855;28;20042;-56
2021/11/22 08:58:47;;;;;;;3.08;0.88;;;;;;;;;;4981192;28;20403;-54
2021/11/22 09:01:13;;;;;;;5.75;0.73;;;;;;;;;;4966018;28;20048;-54
2021/11/22 09:03:39;;;;;;;4.32;0.95;;;;;;;;;;4983747;28;20038;-55
2021/11/22 09:06:05;;;;;;;2.15;0.70;;;;;;;;;;4963969;28;20042;-54
2021/11/22 09:08:31;;;;;;;2.28;0.70;;;;;;;;;;4980195;28;20066;-57
2021/11/22 09:10:57;;;;;;;3.40;1.00;;;;;;;;;;4979689;28;20042;-56
2021/11/22 09:13:23;;;;;;;3.05;0.90;;;;;;;;;;4980574;28;20146;-56
2021/11/22 09:15:49;;;;;;;2.50;0.80;;;;;;;;;;4981639;28;20043;-55
2021/11/22 09:18:15;;;;;;;2.50;0.90;;;;;;;;;;4981697;28;20042;-52
2021/11/22 09:20:41;;;;;;;3.28;0.80;;;;;;;;;;4979472;28;20166;-54
2021/11/22 09:23:07;;;;;;;1.92;0.77;;;;;;;;;;4979853;28;20145;-56
2021/11/22 09:25:35;;;;;;;2.08;0.70;;;;;;;;;;4979748;28;20090;-56
2021/11/22 09:28:01;;;;;;;2.80;0.77;;;;;;;;;;4981164;28;20046;-53
2021/11/22 09:30:27;;;;;;;3.70;0.80;;;;;;;;;;4981130;28;20053;-55
2021/11/22 09:32:53;;;;;;;5.45;0.98;;;;;;;;;;4981567;28;20125;-51
2021/11/22 09:35:20;;;;;;;2.60;1.00;;;;;;;;;;4980769;28;20073;-56
2021/11/22 09:37:46;;;;;;;2.22;0.90;;;;;;;;;;4979469;28;20096;-55
2021/11/22 09:40:13;;;;;;;4.28;0.80;;;;;;;;;;4981409;28;20054;-54
2021/11/22 09:42:39;;;;;;;2.78;0.80;;;;;;;;;;4978878;28;20070;-56
2021/11/22 09:45:06;;;;;;;2.05;0.77;;;;;;;;;;4982719;28;20738;-56
2021/11/22 09:47:32;;;;;;;2.30;0.60;;;;;;;;;;4979349;28;20415;-55
2021/11/22 09:49:58;;;;;;;1.77;0.60;;;;;;;;;;4963307;28;20069;-56
2021/11/22 09:52:25;;;;;;;1.85;0.60;;;;;;;;;;4979900;28;20113;-57
2021/11/22 09:54:51;;;;;;;2.03;0.70;;;;;;;;;;4980767;28;20509;-55
2021/11/22 09:57:17;;;;;;;2.05;0.60;;;;;;;;;;4980580;28;20069;-55
2021/11/22 09:59:43;;;;;;;2.00;0.60;;;;;;;;;;4962552;28;20093;-54
2021/11/22 10:02:09;;;;;;;2.15;0.60;;;;;;;;;;4980615;28;20149;-52
2021/11/22 10:04:35;;;;;;;1.88;0.52;;;;;;;;;;4981994;28;20066;-55
2021/11/22 10:07:03;;;;;;;2.15;0.60;;;;;;;;;;4980441;28;20079;-54
2021/11/22 10:09:32;;;;;;;1.75;0.60;;;;;;;;;;4981427;28;20720;-57
2021/11/22 10:11:59;;;;;;;1.35;0.60;;;;;;;;;;4980559;28;20053;-55
2021/11/22 10:14:28;;;;;;;2.58;0.77;;;;;;;;;;4981313;28;20446;-54
2021/11/22 10:16:54;;;;;;;2.58;0.70;;;;;;;;;;4980301;28;20100;-54
2021/11/22 10:19:21;;;;;;;2.00;0.60;;;;;;;;;;4979876;28;20034;-55
2021/11/22 10:21:47;;;;;;;2.67;0.65;;;;;;;;;;4981585;28;20106;-54
2021/11/22 10:24:14;;;;;;;3.55;0.90;;;;;;;;;;4979635;28;20436;-53
2021/11/22 10:26:41;;;;;;;2.65;0.60;;;;;;;;;;4980266;28;20105;-56
2021/11/22 10:29:09;;;;;;;1.80;0.70;;;;;;;;;;4981599;28;20072;-56
2021/11/22 10:31:36;;;;;;;1.95;0.60;;;;;;;;;;4980737;28;20166;-57
2021/11/22 10:34:02;;;;;;;2.05;0.68;;;;;;;;;;4980894;28;20042;-57
2021/11/22 10:36:29;;;;;;;2.78;0.75;;;;;;;;;;4979895;28;20069;-53
2021/11/22 10:38:57;;;;;;;3.70;0.77;;;;;;;;;;4980029;28;20575;-56
2021/11/22 10:41:25;;;;;;;1.40;0.60;;;;;;;;;;4983126;28;20069;-54
2021/11/22 10:43:52;;;;;;;2.33;0.82;;;;;;;;;;4985916;28;20073;-54
2021/11/22 10:46:25;;;;;;;2.95;0.82;;;;;;;;;;4985324;28;20046;-53
2021/11/22 10:48:53;;;;;;;2.85;0.88;;;;;;;;;;4985331;28;20050;-56
2021/11/22 10:51:24;;;;;;;3.78;0.82;;;;;;;;;;4966173;28;20061;-56
2021/11/22 10:53:55;;;;;;;2.30;0.60;;;;;;;;;;4984279;28;20890;-55
2021/11/22 10:56:25;;;;;;;4.55;0.82;;;;;;;;;;4983962;28;20053;-56
2021/11/22 10:58:57;;;;;;;2.38;0.80;;;;;;;;;;4970076;28;20063;-55
2021/11/22 11:01:23;;;;;;;2.85;0.90;;;;;;;;;;4983638;28;20058;-55
2021/11/22 11:03:56;;;;;;;2.38;0.77;;;;;;;;;;4983493;28;20042;-55
2021/11/22 11:06:42;;;;;;;6.18;0.90;;;;;;;;;;4982654;28;20046;-52
2021/11/22 11:09:18;;;;;;;2.45;0.70;;;;;;;;;;4983082;28;20033;-54
2021/11/22 11:11:44;;;;;;;3.70;1.00;;;;;;;;;;4985523;28;20124;-55
2021/11/22 11:14:11;;;;;;;2.50;0.80;;;;;;;;;;4967568;28;20046;-55
2021/11/22 11:16:38;;;;;;;2.53;0.93;;;;;;;;;;4983946;28;20050;-56
2021/11/22 11:19:05;;;;;;;2.42;0.90;;;;;;;;;;4985704;28;20039;-57
2021/11/22 11:21:33;;;;;;;3.05;1.13;;;;;;;;;;4984231;28;20220;-55
2021/11/22 11:23:59;;;;;;;2.13;0.85;;;;;;;;;;4986073;28;20486;-55
2021/11/22 11:26:26;;;;;;;2.78;0.90;;;;;;;;;;4986937;28;20050;-55
2021/11/22 11:28:52;;;;;;;2.97;1.08;;;;;;;;;;4987113;28;20113;-54
2021/11/22 11:31:18;;;;;;;2.28;0.70;;;;;;;;;;4984374;28;20123;-55
2021/11/22 11:33:44;;;;;;;2.50;0.90;;;;;;;;;;4987154;28;20426;-53
2021/11/22 11:36:18;;;;;;;2.20;0.90;;;;;;;;;;4985616;28;20047;-57
2021/11/22 11:39:04;;;;;;;3.70;1.00;;;;;;;;;;4982924;28;20096;-56
2021/11/22 11:41:36;;;;;;;2.72;0.90;;;;;;;;;;4954313;28;20096;-55
2021/11/22 11:44:08;;;;;;;3.10;0.90;;;;;;;;;;4989790;28;20038;-56
2021/11/22 11:46:40;;;;;;;2.85;1.05;;;;;;;;;;4988442;28;20106;-55
2021/11/22 11:49:06;;;;;;;2.83;0.60;;;;;;;;;;4984344;28;20042;-57
2021/11/22 11:51:39;;;;;;;3.58;0.70;;;;;;;;;;4982530;28;20093;-54
2021/11/22 11:54:05;;;;;;;;;;;;;;;;;;4984007;28;20167;-56
2021/11/22 11:56:31;;;;;;;2.75;0.50;;;;;;;;;;4982306;28;20305;-56
2021/11/22 11:59:13;;;;;;;1.65;0.57;;;;;;;;;;4981987;28;20127;-56
2021/11/22 12:02:05;;;;;;;2.58;0.50;;;;;;;;;;4979610;28;20038;-52
2021/11/22 12:05:00;;;;;;;2.10;0.70;;;;;;;;;;4954574;28;20043;-56
2021/11/22 12:07:27;;;;;;;1.83;0.60;;;;;;;;;;4969821;28;20074;-54
2021/11/22 12:10:11;;;;;;;1.63;0.55;;;;;;;;;;4982275;28;20047;-54
2021/11/22 12:12:38;;;;;;;2.03;0.60;;;;;;;;;;4982540;28;20058;-56
2021/11/22 12:15:13;;;;;;;1.85;0.65;;;;;;;;;;4983504;28;20042;-54
2021/11/22 12:17:42;;;;;;;1.48;0.50;;;;;;;;;;4983874;28;20049;-54
2021/11/22 12:20:09;;;;;;;2.72;0.80;;;;;;;;;;4984107;28;20038;-53
2021/11/22 12:22:35;;;;;;;2.55;0.80;;;;;;;;;;4981944;28;20183;-53
2021/11/22 12:25:01;;;;;;;1.17;0.43;;;;;;;;;;4983799;28;20096;-55
2021/11/22 12:27:27;;;;;;;2.45;0.68;;;;;;;;;;4983000;28;20048;-54
2021/11/22 12:29:54;;;;;;;2.70;0.90;;;;;;;;;;4969228;28;20035;-52
2021/11/22 12:32:26;;;;;;;3.00;0.68;;;;;;;;;;4984143;28;20045;-53
2021/11/22 12:34:59;;;;;;;1.55;0.50;;;;;;;;;;4983394;28;20034;-52
2021/11/22 12:37:26;;;;;;;2.20;0.70;;;;;;;;;;4965529;28;20453;-52
2021/11/22 12:39:52;;;;;;;5.68;0.90;;;;;;;;;;4983503;28;20042;-53
2021/11/22 12:42:20;;;;;;;2.30;0.75;;;;;;;;;;4982035;28;20049;-55
2021/11/22 12:45:00;;;;;;;2.15;0.70;;;;;;;;;;4983581;28;20046;-54
2021/11/22 12:47:28;;;;;;;2.33;0.60;;;;;;;;;;4976870;28;20109;-53
2021/11/22 12:50:06;;;;;;;3.60;0.80;;;;;;;;;;4984151;28;20081;-55
2021/11/22 12:52:32;;;;;;;1.67;0.60;;;;;;;;;;4982013;28;20129;-53
2021/11/22 12:55:01;;;;;;;1.17;0.52;;;;;;;;;;4983457;28;20045;-55
2021/11/22 12:57:28;;;;;;;1.55;0.60;;;;;;;;;;4981854;28;20038;-55
2021/11/22 13:00:12;;;;;;;3.55;0.82;;;;;;;;;;4984107;28;20038;-55
2021/11/22 13:02:44;;;;;;;2.30;0.60;;;;;;;;;;4980132;28;20056;-55
2021/11/22 13:05:10;;;;;;;1.85;0.60;;;;;;;;;;4981447;28;20034;-56
2021/11/22 13:07:36;;;;;;;1.58;0.60;;;;;;;;;;4980793;28;20088;-54
2021/11/22 13:10:06;;;;;;;2.17;0.70;;;;;;;;;;4982338;28;20049;-52
2021/11/22 13:12:33;;;;;;;2.00;0.60;;;;;;;;;;4980809;28;20085;-52
2021/11/22 13:17:45;;;;;;;2.50;0.70;;;;;;;;;;4980463;28;20523;-51
2021/11/22 13:20:12;;;;;;;2.10;0.68;;;;;;;;;;4983256;28;20050;-52
2021/11/22 13:22:37;;;;;;;2.05;0.68;;;;;;;;;;4980598;28;20561;-55
2021/11/22 13:25:20;;;;;;;3.50;0.90;;;;;;;;;;4980859;28;20501;-52
2021/11/22 13:28:04;;;;;;;1.90;0.60;;;;;;;;;;4984259;28;20038;-53
2021/11/22 13:30:33;;;;;;;2.53;0.70;;;;;;;;;;4980207;28;20050;-55
2021/11/22 13:32:59;;;;;;;2.97;0.60;;;;;;;;;;4979779;28;20480;-55
2021/11/22 13:35:25;;;;;;;2.72;0.80;;;;;;;;;;4980084;28;20038;-55
2021/11/22 13:38:11;;;;;;;1.90;0.70;;;;;;;;;;4980083;28;20434;-55
2021/11/22 13:40:42;;;;;;;1.88;0.60;;;;;;;;;;4979672;28;20070;-56
2021/11/22 13:43:12;;;;;;;2.45;0.60;;;;;;;;;;4981808;28;20486;-54
2021/11/22 13:45:39;;;;;;;2.00;0.68;;;;;;;;;;4978203;28;20089;-54
2021/11/22 13:48:05;;;;;;;1.90;0.60;;;;;;;;;;4982778;28;20074;-55
2021/11/22 13:50:44;;;;;;;1.33;0.50;;;;;;;;;;4980603;28;22531;-52
2021/11/22 13:53:13;;;;;;;1.38;0.50;;;;;;;;;;4982961;28;20042;-56
2021/11/22 13:55:39;;;;;;;3.15;0.65;;;;;;;;;;4980700;28;20046;-53
2021/11/22 13:58:13;;;;;;;2.95;0.70;;;;;;;;;;4979935;28;20137;-56
2021/11/22 14:00:52;;;;;;;8.82;0.90;;;;;;;;;;4982016;28;20049;-56
2021/11/22 14:03:18;;;;;;;2.40;0.70;;;;;;;;;;4982632;28;20089;-52
2021/11/22 14:05:44;;;;;;;4.90;0.73;;;;;;;;;;4980654;28;20936;-53
2021/11/22 14:08:13;;;;;;;2.33;0.77;;;;;;;;;;4982430;28;20150;-57
2021/11/22 14:10:40;;;;;;;2.03;0.60;;;;;;;;;;4982002;28;20082;-55
2021/11/22 14:13:14;;;;;;;3.78;0.80;;;;;;;;;;4982671;28;20077;-56
2021/11/22 14:15:40;;;;;;;2.47;0.70;;;;;;;;;;4981191;28;20041;-52
2021/11/22 14:18:15;;;;;;;2.30;0.73;;;;;;;;;;4986311;28;20577;-56
2021/11/22 14:20:45;;;;;;;2.28;0.70;;;;;;;;;;4985944;28;20340;-57
2021/11/22 14:23:11;;;;;;;2.50;0.68;;;;;;;;;;4986379;28;20044;-55
2021/11/22 14:25:38;;;;;;;3.17;0.68;;;;;;;;;;4966880;28;20038;-58
2021/11/22 14:28:14;;;;;;;2.08;0.70;;;;;;;;;;4985995;28;20049;-57
2021/11/22 14:30:41;;;;;;;3.50;0.70;;;;;;;;;;4985273;28;20042;-54
2021/11/22 14:33:10;;;;;;;5.68;0.80;;;;;;;;;;4969726;28;20045;-56
2021/11/22 14:35:37;;;;;;;3.03;0.65;;;;;;;;;;4985476;28;20049;-56
2021/11/22 14:38:15;;;;;;;2.15;0.70;;;;;;;;;;4985586;28;20510;-56
2021/11/22 14:40:42;;;;;;;1.92;0.70;;;;;;;;;;4985154;28;20041;-57
2021/11/22 14:43:15;;;;;;;2.58;0.60;;;;;;;;;;4987176;28;20058;-57
2021/11/22 14:45:42;;;;;;;2.17;0.55;;;;;;;;;;4984993;28;20030;-56
2021/11/22 14:48:15;;;;;;;2.53;0.90;;;;;;;;;;4985500;28;20039;-57
2021/11/22 14:50:41;;;;;;;2.85;0.80;;;;;;;;;;4986958;28;20043;-57
2021/11/22 14:53:09;;;;;;;2.75;0.80;;;;;;;;;;4987447;28;20144;-55